Port Chalmers, New Zealand
Current Conditions -  °F | °C
As of 8:30 PM on Monday 22 Dec 2014 (Local Time) from NZCH Reporting Station
Broken Clouds Broken Clouds  
Wind Chill: 61°   Ceiling: 1300
Heat Index: 61°   Visibility: 6mi
Dew Point: 55°   Wind: 12mph
Humidity: 82%   Direction: 70°ENE
Pressure: 30.09"   Gusts: NA
Location:  45.82°S, 170.62°E
Report Text: NZCH 220730Z AUTO 07010KT 9999 BKN013/// 16/13 Q1019 TEMPOTL0830 SCT014
Loading
Personal Weather Stations






























Interactive Weather Map New forecast layout! Learn more

10-Day Weather Forecast

Advertisements
Track Severe Weather on mobile